Terminal Aerodrome Forecast
Issued by NWS New Orleans/Baton Rouge, LA

Home | Current Version | Previous Version | Text Only | Print | Product List | Glossary On
Versions: 1 2 3 4 5 6 7 8 9 10 11 12 13
000
FTUS44 KLIX 281743
TAFNEW
TAF
KNEW 281743Z 2818/0118 17017G22KT P6SM FEW025
     FM010300 17009KT P6SM BKN008
     FM011600 21016KT P6SM OVC025=

USA.gov is the U.S. government's official web portal to all federal, state and local government web resources and services.